Terminal Aerodrome Forecast
Issued by NWS

Home | Current Version | Previous Version | Text Only | Print | Product List | Glossary On
Versions: 1 2 3 4 5 6 7 8 9 10 11 12 13 14 15
000
FTAK31 PAFA 191722
TAFAGA
TAF
PAGA 191722Z 1918/2018 00000KT 6SM -SN BKN040 OVC070
     FM200300 VRB03KT P6SM OVC035
     FM200800 03005KT 5SM -SN BR BKN030 OVC050=

USA.gov is the U.S. government's official web portal to all federal, state and local government web resources and services.